Decoded Metar for PAOH (HOONAH in AK, USA) (IATA:OOH) | Meteo·Mobile Aviation Weather
aviador You're here:

PAOH Decoded Metar

HOONAH in AK, USA
Report Time2018-11-12 17:56:00
UTC Time2018-11-12 18:27:26
Flight Rules vfr VFR
Wind070° at 07 kt
W.Decomp.*RWY 06: 6.9 kt HW 1.2 kt LCW
W.Rank070° ranks 4
Current wind is above 070° avg. (6.3)
Visibility9999 m
Phenomena:N/A
Clouds:Scattered 033 Hf
Broken 050 Hf
Expected CloudBase > 1,200 ft AGL from Temp-Dew spread
Ceiling5,000 ft
Temp07°C (ISA -8)
Dew Point04°C (81% RH)
AAT3.2°C
QNH1021 hPa
Density Alt-1,086 ft
Elevation30 ft
Report Wrong Elevation
Raw Report
PAOH 121756Z AUTO 07007KT 10SM SCT033 BKN050 07/04 A3014 RMK AO2
SLP206 T00720039 10083 20067 58007=

Extra information for PAOH:More info

Metar Taf Metar & Taf Last 4 Metars F.Rules Stats Wind Profile Meteogram Temp Stats Airport Information Weather charts Add Link Nearby VenuesMetar ALERT Operation Metar Decoded Social comments

AIRNAV info for PAOH